sensor_id;sensor_type;location;lat;lon;timestamp;P1;P2;P0
49462;PMS5003;35357;51.722;0.500;2022-10-23T00:01:30;10;10;
49462;PMS5003;35357;51.722;0.500;2022-10-23T00:03:59;13;12;
49462;PMS5003;35357;51.722;0.500;2022-10-23T00:06:27;12;11;
49462;PMS5003;35357;51.722;0.500;2022-10-23T00:08:55;11;11;
49462;PMS5003;35357;51.722;0.500;2022-10-23T00:11:23;14;13;
49462;PMS5003;35357;51.722;0.500;2022-10-23T00:13:52;10;10;
49462;PMS5003;35357;51.722;0.500;2022-10-23T00:16:21;13;11;
49462;PMS5003;35357;51.722;0.500;2022-10-23T00:18:48;10;10;
49462;PMS5003;35357;51.722;0.500;2022-10-23T00:21:16;12;12;
49462;PMS5003;35357;51.722;0.500;2022-10-23T00:23:44;10;9;
49462;PMS5003;35357;51.722;0.500;2022-10-23T00:26:12;10;10;
49462;PMS5003;35357;51.722;0.500;2022-10-23T00:28:40;10;9;
49462;PMS5003;35357;51.722;0.500;2022-10-23T00:31:07;9;8;
49462;PMS5003;35357;51.722;0.500;2022-10-23T00:33:34;12;11;
49462;PMS5003;35357;51.722;0.500;2022-10-23T00:36:02;11;11;
49462;PMS5003;35357;51.722;0.500;2022-10-23T00:38:31;9;9;
49462;PMS5003;35357;51.722;0.500;2022-10-23T00:40:59;9;9;
49462;PMS5003;35357;51.722;0.500;2022-10-23T00:43:28;14;13;
49462;PMS5003;35357;51.722;0.500;2022-10-23T00:45:56;8;8;
49462;PMS5003;35357;51.722;0.500;2022-10-23T00:48:24;9;9;
49462;PMS5003;35357;51.722;0.500;2022-10-23T00:50:54;11;11;
49462;PMS5003;35357;51.722;0.500;2022-10-23T00:53:22;11;10;
49462;PMS5003;35357;51.722;0.500;2022-10-23T00:55:50;11;10;
49462;PMS5003;35357;51.722;0.500;2022-10-23T00:58:18;14;13;
49462;PMS5003;35357;51.722;0.500;2022-10-23T01:00:47;13;13;
49462;PMS5003;35357;51.722;0.500;2022-10-23T01:03:17;10;10;
49462;PMS5003;35357;51.722;0.500;2022-10-23T01:05:48;9;9;
49462;PMS5003;35357;51.722;0.500;2022-10-23T01:08:21;14;13;
49462;PMS5003;35357;51.722;0.500;2022-10-23T01:10:55;16;13;
49462;PMS5003;35357;51.722;0.500;2022-10-23T01:13:33;11;11;
49462;PMS5003;35357;51.722;0.500;2022-10-23T01:16:10;13;12;
49462;PMS5003;35357;51.722;0.500;2022-10-23T01:18:43;11;11;
49462;PMS5003;35357;51.722;0.500;2022-10-23T01:21:16;14;14;
49462;PMS5003;35357;51.722;0.500;2022-10-23T01:23:58;11;11;
49462;PMS5003;35357;51.722;0.500;2022-10-23T01:26:44;12;11;
49462;PMS5003;35357;51.722;0.500;2022-10-23T01:29:26;14;14;
49462;PMS5003;35357;51.722;0.500;2022-10-23T01:31:58;12;10;
49462;PMS5003;35357;51.722;0.500;2022-10-23T01:34:32;10;10;
49462;PMS5003;35357;51.722;0.500;2022-10-23T01:37:08;9;9;
49462;PMS5003;35357;51.722;0.500;2022-10-23T01:39:40;11;11;
49462;PMS5003;35357;51.722;0.500;2022-10-23T01:42:14;11;11;
49462;PMS5003;35357;51.722;0.500;2022-10-23T01:44:45;7;7;
49462;PMS5003;35357;51.722;0.500;2022-10-23T01:47:16;9;9;
49462;PMS5003;35357;51.722;0.500;2022-10-23T01:49:46;6;6;
49462;PMS5003;35357;51.722;0.500;2022-10-23T01:52:14;10;10;
49462;PMS5003;35357;51.722;0.500;2022-10-23T01:54:43;8;8;
49462;PMS5003;35357;51.722;0.500;2022-10-23T01:57:13;7;6;
49462;PMS5003;35357;51.722;0.500;2022-10-23T01:59:45;7;6;
49462;PMS5003;35357;51.722;0.500;2022-10-23T02:02:16;8;8;
49462;PMS5003;35357;51.722;0.500;2022-10-23T02:04:46;8;7;
49462;PMS5003;35357;51.722;0.500;2022-10-23T02:07:20;11;9;
49462;PMS5003;35357;51.722;0.500;2022-10-23T02:09:48;7;7;
49462;PMS5003;35357;51.722;0.500;2022-10-23T02:12:16;9;9;
49462;PMS5003;35357;51.722;0.500;2022-10-23T02:14:52;8;7;
49462;PMS5003;35357;51.722;0.500;2022-10-23T02:17:25;8;8;
49462;PMS5003;35357;51.722;0.500;2022-10-23T02:20:01;9;9;
49462;PMS5003;35357;51.722;0.500;2022-10-23T02:22:39;10;10;
49462;PMS5003;35357;51.722;0.500;2022-10-23T02:25:15;8;8;
49462;PMS5003;35357;51.722;0.500;2022-10-23T02:27:48;8;8;
49462;PMS5003;35357;51.722;0.500;2022-10-23T02:30:18;7;7;
49462;PMS5003;35357;51.722;0.500;2022-10-23T02:32:46;7;6;
49462;PMS5003;35357;51.722;0.500;2022-10-23T02:35:17;7;7;
49462;PMS5003;35357;51.722;0.500;2022-10-23T02:37:51;10;9;
49462;PMS5003;35357;51.722;0.500;2022-10-23T02:40:19;7;5;
49462;PMS5003;35357;51.722;0.500;2022-10-23T02:42:51;8;8;
49462;PMS5003;35357;51.722;0.500;2022-10-23T02:45:24;9;9;
49462;PMS5003;35357;51.722;0.500;2022-10-23T02:47:59;7;7;
49462;PMS5003;35357;51.722;0.500;2022-10-23T02:50:33;6;6;
49462;PMS5003;35357;51.722;0.500;2022-10-23T02:53:06;8;7;
49462;PMS5003;35357;51.722;0.500;2022-10-23T02:55:43;10;9;
49462;PMS5003;35357;51.722;0.500;2022-10-23T02:58:23;9;8;
49462;PMS5003;35357;51.722;0.500;2022-10-23T03:00:58;8;8;
49462;PMS5003;35357;51.722;0.500;2022-10-23T03:03:34;9;9;
49462;PMS5003;35357;51.722;0.500;2022-10-23T03:06:05;11;11;
49462;PMS5003;35357;51.722;0.500;2022-10-23T03:08:40;11;11;
49462;PMS5003;35357;51.722;0.500;2022-10-23T03:11:08;9;8;
49462;PMS5003;35357;51.722;0.500;2022-10-23T03:13:35;11;11;
49462;PMS5003;35357;51.722;0.500;2022-10-23T03:16:03;9;9;
49462;PMS5003;35357;51.722;0.500;2022-10-23T03:18:30;11;11;
49462;PMS5003;35357;51.722;0.500;2022-10-23T03:20:57;8;8;
49462;PMS5003;35357;51.722;0.500;2022-10-23T03:23:24;10;10;
49462;PMS5003;35357;51.722;0.500;2022-10-23T03:25:51;8;8;
49462;PMS5003;35357;51.722;0.500;2022-10-23T03:28:19;8;8;
49462;PMS5003;35357;51.722;0.500;2022-10-23T03:30:46;9;9;
49462;PMS5003;35357;51.722;0.500;2022-10-23T03:33:13;9;9;
49462;PMS5003;35357;51.722;0.500;2022-10-23T03:35:41;15;12;
49462;PMS5003;35357;51.722;0.500;2022-10-23T03:38:08;10;10;
49462;PMS5003;35357;51.722;0.500;2022-10-23T03:40:35;9;9;
49462;PMS5003;35357;51.722;0.500;2022-10-23T03:43:03;10;10;
49462;PMS5003;35357;51.722;0.500;2022-10-23T03:45:30;10;9;
49462;PMS5003;35357;51.722;0.500;2022-10-23T03:47:57;8;8;
49462;PMS5003;35357;51.722;0.500;2022-10-23T03:50:25;7;7;
49462;PMS5003;35357;51.722;0.500;2022-10-23T03:52:51;9;8;
49462;PMS5003;35357;51.722;0.500;2022-10-23T03:55:18;8;7;
49462;PMS5003;35357;51.722;0.500;2022-10-23T03:57:45;8;8;
49462;PMS5003;35357;51.722;0.500;2022-10-23T04:00:12;9;9;
49462;PMS5003;35357;51.722;0.500;2022-10-23T04:02:40;7;7;
49462;PMS5003;35357;51.722;0.500;2022-10-23T04:05:07;9;9;
49462;PMS5003;35357;51.722;0.500;2022-10-23T04:07:34;7;7;
49462;PMS5003;35357;51.722;0.500;2022-10-23T04:10:02;12;12;
49462;PMS5003;35357;51.722;0.500;2022-10-23T04:12:31;8;7;
49462;PMS5003;35357;51.722;0.500;2022-10-23T04:14:58;8;8;
49462;PMS5003;35357;51.722;0.500;2022-10-23T04:17:25;6;6;
49462;PMS5003;35357;51.722;0.500;2022-10-23T04:19:52;10;10;
49462;PMS5003;35357;51.722;0.500;2022-10-23T04:22:19;11;10;
49462;PMS5003;35357;51.722;0.500;2022-10-23T04:24:46;10;9;
49462;PMS5003;35357;51.722;0.500;2022-10-23T04:27:13;9;9;
49462;PMS5003;35357;51.722;0.500;2022-10-23T04:29:39;9;8;
49462;PMS5003;35357;51.722;0.500;2022-10-23T04:32:06;9;9;
49462;PMS5003;35357;51.722;0.500;2022-10-23T04:34:33;10;10;
49462;PMS5003;35357;51.722;0.500;2022-10-23T04:37:00;10;8;
49462;PMS5003;35357;51.722;0.500;2022-10-23T04:39:26;13;11;
49462;PMS5003;35357;51.722;0.500;2022-10-23T04:41:53;14;13;
49462;PMS5003;35357;51.722;0.500;2022-10-23T04:44:20;13;12;
49462;PMS5003;35357;51.722;0.500;2022-10-23T04:46:47;8;8;
49462;PMS5003;35357;51.722;0.500;2022-10-23T04:49:14;9;9;
49462;PMS5003;35357;51.722;0.500;2022-10-23T04:51:41;9;9;
49462;PMS5003;35357;51.722;0.500;2022-10-23T04:54:09;10;10;
49462;PMS5003;35357;51.722;0.500;2022-10-23T04:56:36;10;10;
49462;PMS5003;35357;51.722;0.500;2022-10-23T04:59:02;11;11;
49462;PMS5003;35357;51.722;0.500;2022-10-23T05:01:30;7;7;
49462;PMS5003;35357;51.722;0.500;2022-10-23T05:03:57;14;13;
49462;PMS5003;35357;51.722;0.500;2022-10-23T05:06:24;10;10;
49462;PMS5003;35357;51.722;0.500;2022-10-23T05:08:51;8;8;
49462;PMS5003;35357;51.722;0.500;2022-10-23T05:11:18;10;9;
49462;PMS5003;35357;51.722;0.500;2022-10-23T05:13:45;10;10;
49462;PMS5003;35357;51.722;0.500;2022-10-23T05:16:17;10;10;
49462;PMS5003;35357;51.722;0.500;2022-10-23T05:18:53;11;9;
49462;PMS5003;35357;51.722;0.500;2022-10-23T05:21:22;9;8;
49462;PMS5003;35357;51.722;0.500;2022-10-23T05:23:54;10;9;
49462;PMS5003;35357;51.722;0.500;2022-10-23T05:26:21;9;9;
49462;PMS5003;35357;51.722;0.500;2022-10-23T05:28:48;8;8;
49462;PMS5003;35357;51.722;0.500;2022-10-23T05:31:15;11;10;
49462;PMS5003;35357;51.722;0.500;2022-10-23T05:33:44;10;10;
49462;PMS5003;35357;51.722;0.500;2022-10-23T05:36:11;8;8;
49462;PMS5003;35357;51.722;0.500;2022-10-23T05:38:40;8;8;
49462;PMS5003;35357;51.722;0.500;2022-10-23T05:41:07;6;6;
49462;PMS5003;35357;51.722;0.500;2022-10-23T05:43:33;8;8;
49462;PMS5003;35357;51.722;0.500;2022-10-23T05:46:02;7;7;
49462;PMS5003;35357;51.722;0.500;2022-10-23T05:48:30;11;9;
49462;PMS5003;35357;51.722;0.500;2022-10-23T05:51:01;10;9;
49462;PMS5003;35357;51.722;0.500;2022-10-23T05:53:28;10;10;
49462;PMS5003;35357;51.722;0.500;2022-10-23T05:55:55;10;9;
49462;PMS5003;35357;51.722;0.500;2022-10-23T05:58:22;10;10;
49462;PMS5003;35357;51.722;0.500;2022-10-23T06:00:49;10;10;
49462;PMS5003;35357;51.722;0.500;2022-10-23T06:03:16;9;8;
49462;PMS5003;35357;51.722;0.500;2022-10-23T06:05:47;8;8;
49462;PMS5003;35357;51.722;0.500;2022-10-23T06:08:15;10;10;
49462;PMS5003;35357;51.722;0.500;2022-10-23T06:10:43;10;10;
49462;PMS5003;35357;51.722;0.500;2022-10-23T06:13:09;9;8;
49462;PMS5003;35357;51.722;0.500;2022-10-23T06:15:36;7;7;
49462;PMS5003;35357;51.722;0.500;2022-10-23T06:18:03;11;10;
49462;PMS5003;35357;51.722;0.500;2022-10-23T06:20:33;11;10;
49462;PMS5003;35357;51.722;0.500;2022-10-23T06:23:01;9;9;
49462;PMS5003;35357;51.722;0.500;2022-10-23T06:25:29;8;8;
49462;PMS5003;35357;51.722;0.500;2022-10-23T06:27:56;9;8;
49462;PMS5003;35357;51.722;0.500;2022-10-23T06:30:24;8;8;
49462;PMS5003;35357;51.722;0.500;2022-10-23T06:32:51;8;8;
49462;PMS5003;35357;51.722;0.500;2022-10-23T06:35:20;9;8;
49462;PMS5003;35357;51.722;0.500;2022-10-23T06:37:47;9;9;
49462;PMS5003;35357;51.722;0.500;2022-10-23T06:40:14;11;10;
49462;PMS5003;35357;51.722;0.500;2022-10-23T06:42:41;11;11;
49462;PMS5003;35357;51.722;0.500;2022-10-23T06:45:08;12;11;
49462;PMS5003;35357;51.722;0.500;2022-10-23T06:47:36;13;12;
49462;PMS5003;35357;51.722;0.500;2022-10-23T06:50:03;11;10;
49462;PMS5003;35357;51.722;0.500;2022-10-23T06:52:30;10;10;
49462;PMS5003;35357;51.722;0.500;2022-10-23T06:54:57;9;9;
49462;PMS5003;35357;51.722;0.500;2022-10-23T06:57:24;8;8;
49462;PMS5003;35357;51.722;0.500;2022-10-23T06:59:51;9;9;
49462;PMS5003;35357;51.722;0.500;2022-10-23T07:02:18;9;9;
49462;PMS5003;35357;51.722;0.500;2022-10-23T07:04:45;9;9;
49462;PMS5003;35357;51.722;0.500;2022-10-23T07:07:12;9;9;
49462;PMS5003;35357;51.722;0.500;2022-10-23T07:09:39;11;11;
49462;PMS5003;35357;51.722;0.500;2022-10-23T07:12:06;10;9;
49462;PMS5003;35357;51.722;0.500;2022-10-23T07:14:33;10;10;
49462;PMS5003;35357;51.722;0.500;2022-10-23T07:17:00;10;10;
49462;PMS5003;35357;51.722;0.500;2022-10-23T07:19:27;12;11;
49462;PMS5003;35357;51.722;0.500;2022-10-23T07:21:55;8;8;
49462;PMS5003;35357;51.722;0.500;2022-10-23T07:24:22;9;9;
49462;PMS5003;35357;51.722;0.500;2022-10-23T07:26:49;8;7;
49462;PMS5003;35357;51.722;0.500;2022-10-23T07:29:16;11;10;
49462;PMS5003;35357;51.722;0.500;2022-10-23T07:31:42;8;6;
49462;PMS5003;35357;51.722;0.500;2022-10-23T07:34:10;12;12;
49462;PMS5003;35357;51.722;0.500;2022-10-23T07:36:37;7;7;
49462;PMS5003;35357;51.722;0.500;2022-10-23T07:39:05;8;8;
49462;PMS5003;35357;51.722;0.500;2022-10-23T07:41:32;9;9;
49462;PMS5003;35357;51.722;0.500;2022-10-23T07:44:00;7;7;
49462;PMS5003;35357;51.722;0.500;2022-10-23T07:46:26;8;8;
49462;PMS5003;35357;51.722;0.500;2022-10-23T07:48:54;6;6;
49462;PMS5003;35357;51.722;0.500;2022-10-23T07:51:20;8;8;
49462;PMS5003;35357;51.722;0.500;2022-10-23T07:53:48;8;6;
49462;PMS5003;35357;51.722;0.500;2022-10-23T07:56:22;7;7;
49462;PMS5003;35357;51.722;0.500;2022-10-23T07:58:51;7;7;
49462;PMS5003;35357;51.722;0.500;2022-10-23T08:01:19;8;8;
49462;PMS5003;35357;51.722;0.500;2022-10-23T08:03:50;9;8;
49462;PMS5003;35357;51.722;0.500;2022-10-23T08:06:17;8;7;
49462;PMS5003;35357;51.722;0.500;2022-10-23T08:08:45;12;11;
49462;PMS5003;35357;51.722;0.500;2022-10-23T08:11:12;9;8;
49462;PMS5003;35357;51.722;0.500;2022-10-23T08:13:41;10;10;
49462;PMS5003;35357;51.722;0.500;2022-10-23T08:16:09;10;9;
49462;PMS5003;35357;51.722;0.500;2022-10-23T08:18:36;7;6;
49462;PMS5003;35357;51.722;0.500;2022-10-23T08:21:03;7;7;
49462;PMS5003;35357;51.722;0.500;2022-10-23T08:23:30;8;7;
49462;PMS5003;35357;51.722;0.500;2022-10-23T08:25:57;6;6;
49462;PMS5003;35357;51.722;0.500;2022-10-23T08:28:32;5;5;
49462;PMS5003;35357;51.722;0.500;2022-10-23T08:31:05;8;8;
49462;PMS5003;35357;51.722;0.500;2022-10-23T08:33:33;7;7;
49462;PMS5003;35357;51.722;0.500;2022-10-23T08:36:01;7;7;
49462;PMS5003;35357;51.722;0.500;2022-10-23T08:38:30;8;8;
49462;PMS5003;35357;51.722;0.500;2022-10-23T08:40:57;7;6;
49462;PMS5003;35357;51.722;0.500;2022-10-23T08:43:27;7;7;
49462;PMS5003;35357;51.722;0.500;2022-10-23T08:46:01;7;7;
49462;PMS5003;35357;51.722;0.500;2022-10-23T08:48:36;7;7;
49462;PMS5003;35357;51.722;0.500;2022-10-23T08:53:55;6;6;
49462;PMS5003;35357;51.722;0.500;2022-10-23T08:56:26;5;5;
49462;PMS5003;35357;51.722;0.500;2022-10-23T08:58:57;8;7;
49462;PMS5003;35357;51.722;0.500;2022-10-23T09:01:35;9;9;
49462;PMS5003;35357;51.722;0.500;2022-10-23T09:04:07;6;6;
49462;PMS5003;35357;51.722;0.500;2022-10-23T09:06:38;8;8;
49462;PMS5003;35357;51.722;0.500;2022-10-23T09:09:23;8;7;
49462;PMS5003;35357;51.722;0.500;2022-10-23T09:12:02;6;6;
49462;PMS5003;35357;51.722;0.500;2022-10-23T09:14:39;7;7;
49462;PMS5003;35357;51.722;0.500;2022-10-23T09:17:20;6;6;
49462;PMS5003;35357;51.722;0.500;2022-10-23T09:19:53;7;6;
49462;PMS5003;35357;51.722;0.500;2022-10-23T09:22:26;6;6;
49462;PMS5003;35357;51.722;0.500;2022-10-23T09:24:54;5;5;
49462;PMS5003;35357;51.722;0.500;2022-10-23T09:27:21;8;8;
49462;PMS5003;35357;51.722;0.500;2022-10-23T09:29:49;7;7;
49462;PMS5003;35357;51.722;0.500;2022-10-23T09:32:19;7;7;
49462;PMS5003;35357;51.722;0.500;2022-10-23T09:34:59;9;8;
49462;PMS5003;35357;51.722;0.500;2022-10-23T09:37:26;9;8;
49462;PMS5003;35357;51.722;0.500;2022-10-23T09:40:11;6;6;
49462;PMS5003;35357;51.722;0.500;2022-10-23T09:42:52;8;8;
49462;PMS5003;35357;51.722;0.500;2022-10-23T09:45:22;7;7;
49462;PMS5003;35357;51.722;0.500;2022-10-23T09:48:02;6;6;
49462;PMS5003;35357;51.722;0.500;2022-10-23T09:50:31;7;7;
49462;PMS5003;35357;51.722;0.500;2022-10-23T09:52:59;9;9;
49462;PMS5003;35357;51.722;0.500;2022-10-23T09:55:26;9;9;
49462;PMS5003;35357;51.722;0.500;2022-10-23T09:57:53;9;9;
49462;PMS5003;35357;51.722;0.500;2022-10-23T10:00:21;7;7;
49462;PMS5003;35357;51.722;0.500;2022-10-23T10:02:54;8;8;
49462;PMS5003;35357;51.722;0.500;2022-10-23T10:05:24;8;7;
49462;PMS5003;35357;51.722;0.500;2022-10-23T10:07:55;7;6;
49462;PMS5003;35357;51.722;0.500;2022-10-23T10:10:26;6;6;
49462;PMS5003;35357;51.722;0.500;2022-10-23T10:13:00;6;6;
49462;PMS5003;35357;51.722;0.500;2022-10-23T10:15:32;5;5;
49462;PMS5003;35357;51.722;0.500;2022-10-23T10:18:09;7;7;
49462;PMS5003;35357;51.722;0.500;2022-10-23T10:20:46;8;8;
49462;PMS5003;35357;51.722;0.500;2022-10-23T10:23:26;6;6;
49462;PMS5003;35357;51.722;0.500;2022-10-23T10:26:00;12;9;
49462;PMS5003;35357;51.722;0.500;2022-10-23T10:28:40;8;8;
49462;PMS5003;35357;51.722;0.500;2022-10-23T10:31:22;12;12;
49462;PMS5003;35357;51.722;0.500;2022-10-23T10:34:02;16;14;
49462;PMS5003;35357;51.722;0.500;2022-10-23T10:36:40;13;12;
49462;PMS5003;35357;51.722;0.500;2022-10-23T10:39:18;19;19;
49462;PMS5003;35357;51.722;0.500;2022-10-23T10:41:56;10;9;
49462;PMS5003;35357;51.722;0.500;2022-10-23T10:44:39;11;10;
49462;PMS5003;35357;51.722;0.500;2022-10-23T10:47:18;10;10;
49462;PMS5003;35357;51.722;0.500;2022-10-23T10:49:50;12;11;
49462;PMS5003;35357;51.722;0.500;2022-10-23T10:52:30;11;11;
49462;PMS5003;35357;51.722;0.500;2022-10-23T10:55:09;13;12;
49462;PMS5003;35357;51.722;0.500;2022-10-23T10:57:43;8;8;
49462;PMS5003;35357;51.722;0.500;2022-10-23T11:00:13;9;8;
49462;PMS5003;35357;51.722;0.500;2022-10-23T11:02:42;9;9;
49462;PMS5003;35357;51.722;0.500;2022-10-23T11:05:14;9;9;
49462;PMS5003;35357;51.722;0.500;2022-10-23T11:07:51;7;5;
49462;PMS5003;35357;51.722;0.500;2022-10-23T11:10:21;9;9;
49462;PMS5003;35357;51.722;0.500;2022-10-23T11:12:48;10;9;
49462;PMS5003;35357;51.722;0.500;2022-10-23T11:15:17;10;9;
49462;PMS5003;35357;51.722;0.500;2022-10-23T11:17:49;9;8;
49462;PMS5003;35357;51.722;0.500;2022-10-23T11:20:26;11;11;
49462;PMS5003;35357;51.722;0.500;2022-10-23T11:23:04;10;10;
49462;PMS5003;35357;51.722;0.500;2022-10-23T11:25:49;9;9;
49462;PMS5003;35357;51.722;0.500;2022-10-23T11:28:30;11;10;
49462;PMS5003;35357;51.722;0.500;2022-10-23T11:31:13;9;8;
49462;PMS5003;35357;51.722;0.500;2022-10-23T11:33:55;6;6;
49462;PMS5003;35357;51.722;0.500;2022-10-23T11:36:40;4;4;
49462;PMS5003;35357;51.722;0.500;2022-10-23T11:39:16;5;5;
49462;PMS5003;35357;51.722;0.500;2022-10-23T11:41:47;6;6;
49462;PMS5003;35357;51.722;0.500;2022-10-23T11:44:25;5;5;
49462;PMS5003;35357;51.722;0.500;2022-10-23T11:47:03;7;7;
49462;PMS5003;35357;51.722;0.500;2022-10-23T11:49:31;6;6;
49462;PMS5003;35357;51.722;0.500;2022-10-23T11:52:00;7;7;
49462;PMS5003;35357;51.722;0.500;2022-10-23T11:54:27;8;8;
49462;PMS5003;35357;51.722;0.500;2022-10-23T11:57:03;10;9;
49462;PMS5003;35357;51.722;0.500;2022-10-23T11:59:39;6;6;
49462;PMS5003;35357;51.722;0.500;2022-10-23T12:02:20;5;5;
49462;PMS5003;35357;51.722;0.500;2022-10-23T12:04:53;5;5;
49462;PMS5003;35357;51.722;0.500;2022-10-23T12:07:23;8;7;
49462;PMS5003;35357;51.722;0.500;2022-10-23T12:09:54;5;5;
49462;PMS5003;35357;51.722;0.500;2022-10-23T12:12:25;5;5;
49462;PMS5003;35357;51.722;0.500;2022-10-23T12:15:05;6;6;
49462;PMS5003;35357;51.722;0.500;2022-10-23T12:17:35;5;5;
49462;PMS5003;35357;51.722;0.500;2022-10-23T12:20:38;6;6;
49462;PMS5003;35357;51.722;0.500;2022-10-23T12:23:19;6;6;
49462;PMS5003;35357;51.722;0.500;2022-10-23T12:26:04;5;5;
49462;PMS5003;35357;51.722;0.500;2022-10-23T12:28:44;5;5;
49462;PMS5003;35357;51.722;0.500;2022-10-23T12:31:24;4;4;
49462;PMS5003;35357;51.722;0.500;2022-10-23T12:34:04;5;5;
49462;PMS5003;35357;51.722;0.500;2022-10-23T12:36:43;6;6;
49462;PMS5003;35357;51.722;0.500;2022-10-23T12:39:24;5;5;
49462;PMS5003;35357;51.722;0.500;2022-10-23T12:41:52;8;8;
49462;PMS5003;35357;51.722;0.500;2022-10-23T12:44:20;4;4;
49462;PMS5003;35357;51.722;0.500;2022-10-23T12:46:49;7;7;
49462;PMS5003;35357;51.722;0.500;2022-10-23T12:49:21;6;6;
49462;PMS5003;35357;51.722;0.500;2022-10-23T12:51:53;7;7;
49462;PMS5003;35357;51.722;0.500;2022-10-23T12:54:21;5;5;
49462;PMS5003;35357;51.722;0.500;2022-10-23T12:56:49;8;7;
49462;PMS5003;35357;51.722;0.500;2022-10-23T12:59:17;7;7;
49462;PMS5003;35357;51.722;0.500;2022-10-23T13:01:47;5;5;
49462;PMS5003;35357;51.722;0.500;2022-10-23T13:04:15;4;4;
49462;PMS5003;35357;51.722;0.500;2022-10-23T13:06:51;5;5;
49462;PMS5003;35357;51.722;0.500;2022-10-23T13:09:22;5;5;
49462;PMS5003;35357;51.722;0.500;2022-10-23T13:11:53;7;6;
49462;PMS5003;35357;51.722;0.500;2022-10-23T13:14:27;5;4;
49462;PMS5003;35357;51.722;0.500;2022-10-23T13:16:59;4;4;
49462;PMS5003;35357;51.722;0.500;2022-10-23T13:19:27;4;4;
49462;PMS5003;35357;51.722;0.500;2022-10-23T13:21:54;6;6;
49462;PMS5003;35357;51.722;0.500;2022-10-23T13:24:21;4;4;
49462;PMS5003;35357;51.722;0.500;2022-10-23T13:26:52;4;4;
49462;PMS5003;35357;51.722;0.500;2022-10-23T13:29:21;6;4;
49462;PMS5003;35357;51.722;0.500;2022-10-23T13:31:50;5;5;
49462;PMS5003;35357;51.722;0.500;2022-10-23T13:34:24;7;7;
49462;PMS5003;35357;51.722;0.500;2022-10-23T13:36:55;6;5;
49462;PMS5003;35357;51.722;0.500;2022-10-23T13:39:26;6;6;
49462;PMS5003;35357;51.722;0.500;2022-10-23T13:41:56;7;6;
49462;PMS5003;35357;51.722;0.500;2022-10-23T13:44:27;8;7;
49462;PMS5003;35357;51.722;0.500;2022-10-23T13:46:54;7;7;
49462;PMS5003;35357;51.722;0.500;2022-10-23T13:49:22;6;6;
49462;PMS5003;35357;51.722;0.500;2022-10-23T13:51:50;4;4;
49462;PMS5003;35357;51.722;0.500;2022-10-23T13:54:19;6;6;
49462;PMS5003;35357;51.722;0.500;2022-10-23T13:56:47;6;6;
49462;PMS5003;35357;51.722;0.500;2022-10-23T13:59:16;8;8;
49462;PMS5003;35357;51.722;0.500;2022-10-23T14:01:43;5;5;
49462;PMS5003;35357;51.722;0.500;2022-10-23T14:04:12;6;6;
49462;PMS5003;35357;51.722;0.500;2022-10-23T14:06:41;7;7;
49462;PMS5003;35357;51.722;0.500;2022-10-23T14:09:10;8;8;
49462;PMS5003;35357;51.722;0.500;2022-10-23T14:11:39;7;5;
49462;PMS5003;35357;51.722;0.500;2022-10-23T14:14:07;6;6;
49462;PMS5003;35357;51.722;0.500;2022-10-23T14:16:34;9;9;
49462;PMS5003;35357;51.722;0.500;2022-10-23T14:19:02;9;9;
49462;PMS5003;35357;51.722;0.500;2022-10-23T14:21:29;8;8;
49462;PMS5003;35357;51.722;0.500;2022-10-23T14:23:57;8;7;
49462;PMS5003;35357;51.722;0.500;2022-10-23T14:26:25;8;8;
49462;PMS5003;35357;51.722;0.500;2022-10-23T14:28:53;6;6;
49462;PMS5003;35357;51.722;0.500;2022-10-23T14:31:21;10;8;
49462;PMS5003;35357;51.722;0.500;2022-10-23T14:33:50;11;11;
49462;PMS5003;35357;51.722;0.500;2022-10-23T14:36:18;9;8;
49462;PMS5003;35357;51.722;0.500;2022-10-23T14:38:45;9;9;
49462;PMS5003;35357;51.722;0.500;2022-10-23T14:41:13;11;11;
49462;PMS5003;35357;51.722;0.500;2022-10-23T14:43:41;10;9;
49462;PMS5003;35357;51.722;0.500;2022-10-23T14:46:09;10;10;
49462;PMS5003;35357;51.722;0.500;2022-10-23T14:48:38;11;11;
49462;PMS5003;35357;51.722;0.500;2022-10-23T14:51:06;9;9;
49462;PMS5003;35357;51.722;0.500;2022-10-23T14:53:42;10;10;
49462;PMS5003;35357;51.722;0.500;2022-10-23T14:56:08;11;11;
49462;PMS5003;35357;51.722;0.500;2022-10-23T14:58:36;10;10;
49462;PMS5003;35357;51.722;0.500;2022-10-23T15:01:03;11;11;
49462;PMS5003;35357;51.722;0.500;2022-10-23T15:03:31;11;11;
49462;PMS5003;35357;51.722;0.500;2022-10-23T15:05:57;11;10;
49462;PMS5003;35357;51.722;0.500;2022-10-23T15:08:24;11;11;
49462;PMS5003;35357;51.722;0.500;2022-10-23T15:10:51;13;13;
49462;PMS5003;35357;51.722;0.500;2022-10-23T15:13:19;13;13;
49462;PMS5003;35357;51.722;0.500;2022-10-23T15:15:47;13;13;
49462;PMS5003;35357;51.722;0.500;2022-10-23T15:18:14;12;12;
49462;PMS5003;35357;51.722;0.500;2022-10-23T15:20:41;12;12;
49462;PMS5003;35357;51.722;0.500;2022-10-23T15:23:08;14;14;
49462;PMS5003;35357;51.722;0.500;2022-10-23T15:25:35;14;13;
49462;PMS5003;35357;51.722;0.500;2022-10-23T15:28:02;14;14;
49462;PMS5003;35357;51.722;0.500;2022-10-23T15:30:29;15;15;
49462;PMS5003;35357;51.722;0.500;2022-10-23T15:32:56;14;12;
49462;PMS5003;35357;51.722;0.500;2022-10-23T15:35:24;11;11;
49462;PMS5003;35357;51.722;0.500;2022-10-23T15:37:51;13;12;
49462;PMS5003;35357;51.722;0.500;2022-10-23T15:40:18;14;14;
49462;PMS5003;35357;51.722;0.500;2022-10-23T15:42:44;14;14;
49462;PMS5003;35357;51.722;0.500;2022-10-23T15:45:15;11;10;
49462;PMS5003;35357;51.722;0.500;2022-10-23T15:47:43;13;13;
49462;PMS5003;35357;51.722;0.500;2022-10-23T15:50:09;13;13;
49462;PMS5003;35357;51.722;0.500;2022-10-23T15:52:37;13;13;
49462;PMS5003;35357;51.722;0.500;2022-10-23T15:55:05;10;10;
49462;PMS5003;35357;51.722;0.500;2022-10-23T15:57:33;12;12;
49462;PMS5003;35357;51.722;0.500;2022-10-23T16:00:00;15;12;
49462;PMS5003;35357;51.722;0.500;2022-10-23T16:02:28;16;15;
49462;PMS5003;35357;51.722;0.500;2022-10-23T16:04:54;14;14;
49462;PMS5003;35357;51.722;0.500;2022-10-23T16:07:22;13;13;
49462;PMS5003;35357;51.722;0.500;2022-10-23T16:09:49;14;14;
49462;PMS5003;35357;51.722;0.500;2022-10-23T16:12:16;12;12;
49462;PMS5003;35357;51.722;0.500;2022-10-23T16:14:43;14;14;
49462;PMS5003;35357;51.722;0.500;2022-10-23T16:17:16;14;12;
49462;PMS5003;35357;51.722;0.500;2022-10-23T16:19:44;13;12;
49462;PMS5003;35357;51.722;0.500;2022-10-23T16:22:11;14;14;
49462;PMS5003;35357;51.722;0.500;2022-10-23T16:24:38;14;14;
49462;PMS5003;35357;51.722;0.500;2022-10-23T16:27:05;12;12;
49462;PMS5003;35357;51.722;0.500;2022-10-23T16:29:37;13;12;
49462;PMS5003;35357;51.722;0.500;2022-10-23T16:32:04;12;12;
49462;PMS5003;35357;51.722;0.500;2022-10-23T16:34:32;12;11;
49462;PMS5003;35357;51.722;0.500;2022-10-23T16:36:59;11;11;
49462;PMS5003;35357;51.722;0.500;2022-10-23T16:39:27;12;12;
49462;PMS5003;35357;51.722;0.500;2022-10-23T16:41:54;11;11;
49462;PMS5003;35357;51.722;0.500;2022-10-23T16:44:22;12;12;
49462;PMS5003;35357;51.722;0.500;2022-10-23T16:46:49;9;8;
49462;PMS5003;35357;51.722;0.500;2022-10-23T16:49:17;11;10;
49462;PMS5003;35357;51.722;0.500;2022-10-23T16:51:44;12;12;
49462;PMS5003;35357;51.722;0.500;2022-10-23T16:54:11;5;5;
49462;PMS5003;35357;51.722;0.500;2022-10-23T16:56:38;1;1;
49462;PMS5003;35357;51.722;0.500;2022-10-23T16:59:06;2;1;
49462;PMS5003;35357;51.722;0.500;2022-10-23T17:01:33;3;3;